< < Back
Terminal Aerodrome Forecast


Current Version              Previous Versions:   1  2  3  4  5  6  7  8  9  

Terminal Aerodrome Forecast

775
FTUS42 KFFC 242323
TAFPDK
TAF
KPDK 242323Z 2500/2524 30010KT P6SM SCT050 BKN250
     FM250200 00000KT P6SM FEW060 SCT250
     FM251500 29004KT P6SM SCT045 BKN250
     FM251800 30008G15KT P6SM VCSH BKN060
     FM252300 31008KT P6SM SCT060=



Latest METAR

183
SAUS70 KWBC 250300 RRK
MTRPDK
METAR KPDK 250253Z 00000KT 10SM SCT060 28/20 A3005 RMK AO2 SLP155
T02780200 53009


USA.gov is the U.S. government's official web portal to all federal, state and local government web resources and services.